ADDS METAR Data INFO
IDs: Format: Raw Decoded Include TAF

Data at: 0215 UTC 18 Jan 2018

KBFL 180154Z 00000KT 4SM HZ FEW007 11/08 A3017 RMK AO2 SLP216 T01110083
KBFL 180150Z 00000KT 4SM HZ SCT007 11/08 A3017 RMK AO2
KBFL 180054Z 13007KT 3SM HZ OVC007 12/09 A3018 RMK AO2 SLP220 T01170089
KBFL 180049Z 13008KT 3SM BR OVC007 11/09 A3019 RMK AO2
KBFL 172354Z 15009KT 2SM BR OVC005 11/09 A3021 RMK AO2 SLP231 T01110094 10122 20100 58017
KBFL 172341Z 16010KT 1 3/4SM BR BKN007 OVC010 11/09 A3022 RMK AO2 TWR VIS 2 T01110094
KBFL 172316Z 15011KT 2 1/2SM BR BKN007 OVC010 12/09 A3024 RMK AO2 TWR VIS 3 T01170094
KBFL 172254Z 20005KT 3SM HZ OVC010 12/09 A3025 RMK AO2 SFC VIS 3 SLP243 T01220094
KBFL 172154Z 21005KT 3SM HZ OVC006 12/09 A3026 RMK AO2 SLP247 T01220094
KBFL 172149Z 17004KT 3SM HZ OVC006 12/09 A3026 RMK AO2
KBFL 172054Z 33008KT 2SM BR OVC005 12/10 A3027 RMK AO2 TWR VIS 3 SLP251 T01170100 56002
KBFL 172029Z 34009KT 2 1/2SM BR OVC005 12/09 A3028 RMK AO2 TWR VIS 3 T01170094
KBFL 172001Z 33007KT 2SM BR OVC004 12/10 A3028 RMK AO2 T01170100
KBFL 171954Z 32007KT 1 3/4SM BR OVC004 11/09 A3028 RMK AO2 SFC VIS 2 SLP251 T01110094
KBFL 171924Z 32006KT 1 3/4SM BR OVC003 11/09 A3028 RMK AO2 T01060094
KBFL 171854Z 32005KT 1 1/4SM R30R/5000V6000FT BR OVC003 11/09 A3027 RMK AO2 SLP251 T01060094
KBFL 171826Z 33003KT 1 1/4SM R30R/6000VP6000FT BR OVC003 11/09 A3027 RMK AO2 SFC VIS 1 1/2 T01060094
KBFL 171754Z 33007KT 3/4SM R30R/2400V4500FT BR OVC002 11/09 A3028 RMK AO2 SLP253 T01060094 10106 20094 53003
KBFL 171736Z 34005KT 1/2SM R30R/3000VP6000FT BR OVC002 10/09 A3028 RMK AO2 SFC VIS 3/4 T01000089
KBFL 171706Z 00000KT 1/4SM R30R/1400V4000FT FG VV002 10/09 A3027 RMK AO2 TWR VIS 1/2 T01000089
KBFL 171654Z 29003KT M1/4SM R30R/1000V1400FT FG VV002 10/09 A3026 RMK AO2 TWR VIS 1/2 SLP248 T01000089
KBFL 171631Z 24004KT 1/4SM R30R/1200V1800FT FG VV002 09/09 A3026 RMK AO2 TWR VIS 1/2 T00940089
KBFL 171554Z 14004KT 1/4SM R30R/2600V4000FT FG OVC002 09/09 A3026 RMK AO2 TWR VIS 1/2 SLP246 T00940089
KBFL 171542Z 18004KT 1/4SM R30R/3000V4000FT FG OVC002 09/09 A3026 RMK AO2 TWR VIS 1/2 T00940089
KBFL 171454Z 36003KT 1/2SM R30R/4500V5500FT BR OVC002 10/09 A3027 RMK AO2 SFC VIS 3/4 SLP249 T01000089 53013
KBFL 171421Z 01007KT 1/2SM R30R/2000V4000FT FG VV002 10/09 A3027 RMK AO2 T01000089
KBFL 171418Z 36006KT 1/4SM R30R/2000V2200FT FG VV002 10/09 A3027 RMK AO2 T01000089
KBFL 171407Z 35008KT 1/2SM R30R/1600V2400FT FG VV002 10/09 A3026 RMK AO2 T01000089
KBFL 171354Z 33008KT 1/4SM R30R/1600V1800FT FG VV002 10/09 A3026 RMK AO2 SLP246 T01000089
KBFL 171254Z AUTO 31005KT 1/4SM R30R/1200FT FG VV001 10/09 A3024 RMK AO2 SLP238 T01000089
KBFL 171221Z AUTO 00000KT 1/4SM R30R/1000V1200FT FG VV001 10/09 A3023 RMK AO2 T01000089
KBFL 171209Z AUTO 00000KT 1/4SM R30R/1200V1600FT FG VV002 10/09 A3024 RMK AO2 T01000094
KBFL 171154Z AUTO 00000KT 1/2SM R30R/1200V2200FT FG VV002 10/09 A3023 RMK AO2 SLP236 T01000089 10117 20078 58006
KBFL 171116Z AUTO 36005KT 1/2SM R30R/1800V2600FT FG VV002 09/09 A3025 RMK AO2 T00940089
KBFL 171054Z AUTO 33006KT 1/4SM R30R/1600V1800FT FG VV002 09/09 A3026 RMK AO2 SLP245 T00940089
KBFL 171010Z AUTO 34006KT 1/4SM R30R/1200V2000FT FG BKN003 OVC010 09/08 A3026 RMK AO2 T00940083
KBFL 171006Z AUTO 34006KT 1/2SM R30R/1400VP6000FT FG BKN003 OVC010 09/08 A3026 RMK AO2 T00940083
KBFL 171003Z AUTO 34006KT 1SM R30R/1400VP6000FT BR BKN005 OVC010 09/08 A3026 RMK AO2 T00940083
KBFL 170954Z AUTO 34004KT 2SM BR BKN005 OVC010 09/08 A3026 RMK AO2 SLP245 T00890078
KBFL 170947Z AUTO 35006KT 2SM BR BKN005 OVC011 08/07 A3026 RMK AO2 T00830072
KBFL 170937Z AUTO 35005KT 1 3/4SM R30R/1600VP6000FT BR BKN005 BKN011 08/07 A3026 RMK AO2 T00830067
KBFL 170926Z AUTO 33005KT 1 3/4SM R30R/1600VP6000FT BR SCT005 BKN011 08/07 A3026 RMK AO2 T00830067
KBFL 170854Z AUTO 13003KT 2SM BR CLR 10/08 A3025 RMK AO2 SLP242 T01000083 51009
KBFL 170841Z AUTO 15004KT 2 1/2SM BR CLR 10/09 A3026 RMK AO2 T01000089
KBFL 170754Z AUTO 14004KT 5SM HZ CLR 11/08 A3024 RMK AO2 SLP239 T01060078 401610094
KBFL 170654Z AUTO 32004KT 3SM BR CLR 10/08 A3024 RMK AO2 SLP239 T01000083
KBFL 170554Z 32005KT 3SM BR CLR 09/07 A3023 RMK AO2 SLP234 T00940072 10161 20094 53005
KBFL 170454Z 00000KT 4SM HZ CLR 12/09 A3020 RMK AO2 SLP227 T01220094
KBFL 170354Z 10004KT 4SM HZ CLR 13/10 A3022 RMK AO2 SLP230 T01330100
KBFL 170254Z 02004KT 3SM HZ CLR 13/10 A3021 RMK AO2 SLP229 T01330100 53005
KBFL 170154Z 31005KT 4SM HZ CLR 14/11 A3020 RMK AO2 SLP226 T01390106
KBFL 170054Z 30004KT 3SM HZ CLR 15/10 A3019 RMK AO2 SLP220 T01500100
KBFL 162354Z 00000KT 4SM HZ CLR 16/10 A3020 RMK AO2 SLP223 T01610100 10161 20100 56005
KBFL 162254Z 22003KT 4SM HZ CLR 16/09 A3020 RMK AO2 SLP224 T01610094
KBFL 162154Z 22004KT 3SM HZ CLR 16/10 A3021 RMK AO2 SFC VIS 4 SLP227 T01560100
KBFL 162054Z 21004KT 3SM HZ CLR 15/10 A3021 RMK AO2 SLP228 T01500100 58012
KBFL 162033Z 20005KT 3SM HZ CLR 14/10 A3021 RMK AO2 T01440100
KBFL 161954Z 00000KT 2SM BR SCT004 13/11 A3023 RMK AO2 SLP236 T01280106
KBFL 161943Z 00000KT 2SM BR BKN003 12/11 A3024 RMK AO2 T01170106
KBFL 161928Z 00000KT 1SM R30R/5000VP6000FT BR OVC003 12/11 A3025 RMK AO2 SFC VIS 1 1/4 T01170106
KBFL 161911Z 00000KT 3/4SM R30R/3000V5500FT BR OVC002 11/10 A3025 RMK AO2 SFC VIS 1 T01110100
KBFL 161854Z 28004KT 1/4SM R30R/2200V3000FT FG OVC002 11/10 A3025 RMK AO2 SFC VIS 1/2 SLP243 T01060100
KBFL 161843Z 00000KT 1/4SM R30R/1800V2600FT FG VV002 11/10 A3025 RMK AO2 T01060100
KBFL 161820Z 00000KT M1/4SM R30R/1000V1200FT FG VV002 10/09 A3025 RMK AO2 TWR VIS 1/4 T01000094
KBFL 161754Z 00000KT M1/4SM R30R/0700V1000FT FG VV001 10/09 A3025 RMK AO2 TWR VIS 1/4 SLP242 T01000094 10100 20094 53013
KBFL 161654Z 18006KT M1/4SM R30R/0700V0800FT FG VV001 10/09 A3023 RMK AO2 TWR VIS 1/4 SLP236 T01000094
KBFL 161554Z 14009KT M1/4SM R30R/0700V0800FT FG VV001 09/09 A3021 RMK AO2 TWR VIS 1/4 SLP228 T00940089
KBFL 161526Z 16005KT M1/4SM R30R/0800V1000FT FG VV001 09/08 A3022 RMK AO2 TWR VIS 1/4 T00940083
KBFL 161505Z 17003KT 1/4SM R30R/1400V2200FT FG VV003 09/08 A3021 RMK AO2 T00940083
KBFL 161456Z 00000KT 1/4SM R30R/2200VP6000FT BR SCT003 BKN009 09/08 A3021 RMK AO2 SFC VIS 1 1/4 T00940083
KBFL 161452Z 00000KT 1SM R30R/5000VP6000FT BR FEW003 SCT011 09/09 A3021 RMK AO2 SFC VIS 1 1/2 SLP228 T00940089 51020
KBFL 161451Z 00000KT 1SM R30R/5500VP6000FT BR FEW003 SCT011 09/09 A3021 RMK AO2 SFC VIS 1 1/2
KBFL 161437Z 29003KT 2SM BR SCT005 09/08 A3020 RMK AO2 T00940083
KBFL 161428Z 30004KT 1 1/2SM R30R/3500VP6000FT BR BKN005 09/09 A3020 RMK AO2 T00940089
KBFL 161424Z 30005KT 1/2SM R30R/1400VP6000FT BR VV005 09/09 A3020 RMK AO2 SFC VIS 3/4 T00940089
KBFL 161418Z 32005KT 1/4SM R30R/1200V3000FT FG VV004 09/09 A3020 RMK AO2 T00940089